Time;durP1;ratioP1;P1;durP2;ratioP2;P2;SDS_P1;SDS_P2;PMS_P1;PMS_P2;Temp;Humidity;BMP_temperature;BMP_pressure;BME280_temperature;BME280_humidity;BME280_pressure;Samples;Min_cycle;Max_cycle;Signal;HPM_P1;HPM_P2
2023/10/13 00:01:19;;;;;;;11.68;5.47;;;17.00;99.90;;;;;;5094156;28;20016;-76
2023/10/13 00:03:45;;;;;;;11.07;5.60;;;17.00;99.90;;;;;;5094170;28;20030;-76
2023/10/13 00:06:10;;;;;;;12.30;5.20;;;17.00;99.90;;;;;;5094010;28;20483;-76
2023/10/13 00:08:39;;;;;;;10.60;5.15;;;17.40;99.90;;;;;;5094024;28;20019;-76
2023/10/13 00:11:05;;;;;;;12.45;6.00;;;16.90;99.90;;;;;;5093972;28;20030;-76
2023/10/13 00:13:41;;;;;;;10.93;5.10;;;16.90;99.90;;;;;;5093990;28;20024;-77
2023/10/13 00:16:09;;;;;;;10.50;4.70;;;16.90;99.90;;;;;;5093919;28;20024;-76
2023/10/13 00:18:41;;;;;;;15.45;5.65;;;16.90;99.90;;;;;;5093936;28;20031;-76
2023/10/13 00:21:14;;;;;;;13.80;5.82;;;16.90;99.90;;;;;;5093825;28;20102;-76
2023/10/13 00:23:53;;;;;;;12.27;4.57;;;16.90;99.90;;;;;;5075671;28;20070;-76
2023/10/13 00:26:29;;;;;;;12.35;5.15;;;18.40;99.90;;;;;;5075798;28;20024;-76
2023/10/13 00:31:36;;;;;;;14.23;5.80;;;16.90;99.90;;;;;;5094527;28;20093;-76
2023/10/13 00:34:12;;;;;;;10.65;4.85;;;16.90;99.90;;;;;;5075557;28;20062;-76
2023/10/13 00:36:48;;;;;;;12.27;5.10;;;16.90;99.90;;;;;;5093555;28;20502;-76
2023/10/13 00:39:15;;;;;;;12.07;5.88;;;17.00;99.90;;;;;;5075446;28;20035;-76
2023/10/13 00:41:52;;;;;;;12.10;6.32;;;16.90;99.90;;;;;;5093566;28;20047;-76
2023/10/13 00:44:28;;;;;;;11.00;5.28;;;16.90;99.90;;;;;;5093145;28;20107;-76
2023/10/13 00:46:56;;;;;;;13.98;6.10;;;17.40;99.90;;;;;;5093390;28;20073;-76
2023/10/13 00:49:22;;;;;;;22.77;5.95;;;16.90;99.90;;;;;;5093369;28;20044;-76
2023/10/13 00:51:49;;;;;;;14.23;5.30;;;16.90;99.90;;;;;;5093503;28;20391;-76
2023/10/13 00:54:18;;;;;;;11.20;5.53;;;16.80;99.90;;;;;;5093473;28;20063;-76
2023/10/13 00:56:52;;;;;;;11.25;5.43;;;16.80;99.90;;;;;;5093235;28;20043;-76
2023/10/13 00:59:23;;;;;;;15.90;6.45;;;16.70;99.90;;;;;;5075686;28;20135;-76
2023/10/13 01:01:54;;;;;;;18.35;6.75;;;16.80;99.90;;;;;;5093853;28;20023;-76
2023/10/13 01:04:20;;;;;;;11.88;4.68;;;16.80;99.90;;;;;;5093836;28;20464;-76
2023/10/13 01:06:46;;;;;;;9.20;4.80;;;16.80;99.90;;;;;;5093033;28;20062;-76
2023/10/13 01:09:13;;;;;;;12.60;5.97;;;16.70;99.90;;;;;;5093660;28;20020;-76
2023/10/13 01:11:52;;;;;;;10.95;5.25;;;16.80;99.90;;;;;;5093189;28;20426;-76
2023/10/13 01:14:20;;;;;;;13.00;5.63;;;16.80;99.90;;;;;;5093484;28;20020;-76
2023/10/13 01:16:47;;;;;;;12.13;6.18;;;16.80;99.90;;;;;;5093569;28;20440;-76
2023/10/13 01:19:16;;;;;;;12.55;4.72;;;16.90;99.90;;;;;;5093091;28;20471;-76
2023/10/13 01:21:44;;;;;;;10.25;4.78;;;16.90;99.90;;;;;;5093423;28;20027;-76
2023/10/13 01:24:13;;;;;;;9.35;5.18;;;16.90;99.90;;;;;;5093482;28;20482;-76
2023/10/13 01:26:39;;;;;;;;;;;16.90;99.90;;;;;;5093396;28;20017;-76
2023/10/13 01:29:14;;;;;;;12.60;5.97;;;17.00;99.90;;;;;;5093553;28;20259;-77
2023/10/13 01:31:47;;;;;;;9.77;5.75;;;16.90;99.90;;;;;;5093068;28;20486;-76
2023/10/13 01:34:21;;;;;;;8.57;4.95;;;16.90;99.90;;;;;;5093021;28;20027;-76
2023/10/13 01:36:51;;;;;;;14.07;5.43;;;16.90;99.90;;;;;;5092856;28;20020;-76
2023/10/13 01:39:19;;;;;;;11.15;5.40;;;16.90;99.90;;;;;;5093855;28;20019;-76
2023/10/13 01:41:45;;;;;;;12.85;5.38;;;16.90;99.90;;;;;;5074823;28;20027;-76
2023/10/13 01:44:17;;;;;;;10.40;4.72;;;16.90;99.90;;;;;;5074750;28;20024;-76
2023/10/13 01:46:42;;;;;;;10.35;4.75;;;16.80;99.90;;;;;;5074207;28;20077;-77
2023/10/13 01:49:08;;;;;;;9.95;5.28;;;16.90;99.90;;;;;;5093330;28;20046;-76
2023/10/13 01:51:34;;;;;;;8.88;5.03;;;16.80;99.90;;;;;;5092690;28;20039;-76
2023/10/13 01:54:03;;;;;;;8.55;4.88;;;16.80;99.90;;;;;;5092745;28;20512;-76
2023/10/13 01:56:31;;;;;;;8.55;4.18;;;16.80;99.90;;;;;;5093618;28;20044;-76
2023/10/13 01:58:56;;;;;;;11.27;4.63;;;16.80;99.90;;;;;;5097231;28;20524;-76
2023/10/13 02:01:27;;;;;;;11.55;5.38;;;16.90;99.90;;;;;;5096754;28;20016;-76
2023/10/13 02:04:03;;;;;;;10.43;4.47;;;16.80;99.90;;;;;;5097013;28;20399;-76
2023/10/13 02:06:33;;;;;;;12.93;3.75;;;16.80;99.90;;;;;;5097193;28;20517;-76
2023/10/13 02:09:12;;;;;;;10.27;4.22;;;16.90;99.90;;;;;;5096317;28;20018;-76
2023/10/13 02:11:45;;;;;;;12.80;3.97;;;16.90;99.90;;;;;;5096432;28;20018;-76
2023/10/13 02:14:11;;;;;;;7.38;3.30;;;17.00;99.90;;;;;;5096879;28;20020;-76
2023/10/13 02:16:40;;;;;;;11.90;4.57;;;17.10;99.90;;;;;;5096133;28;20023;-76
2023/10/13 02:19:05;;;;;;;7.40;3.50;;;16.90;99.90;;;;;;5096194;28;20016;-76
2023/10/13 02:21:31;;;;;;;8.75;3.70;;;16.80;99.90;;;;;;5077980;28;20051;-76
2023/10/13 02:24:00;;;;;;;8.10;4.20;;;16.90;99.90;;;;;;5096587;28;20024;-76
2023/10/13 02:26:30;;;;;;;8.40;3.88;;;16.80;99.90;;;;;;5095872;28;20023;-76
2023/10/13 02:29:00;;;;;;;12.52;4.03;;;16.70;99.90;;;;;;5077829;28;20020;-76
2023/10/13 02:31:27;;;;;;;8.45;3.88;;;16.80;99.90;;;;;;5096472;28;20016;-76
2023/10/13 02:33:53;;;;;;;7.70;3.05;;;16.80;99.90;;;;;;5095884;28;20020;-76
2023/10/13 02:36:36;;;;;;;10.13;3.50;;;16.80;99.90;;;;;;5095695;28;20047;-76
2023/10/13 02:39:07;;;;;;;9.95;3.35;;;16.80;99.90;;;;;;5096368;28;20024;-76
2023/10/13 02:41:35;;;;;;;12.98;3.90;;;16.70;99.90;;;;;;5095836;28;20102;-76
2023/10/13 02:44:01;;;;;;;8.68;3.97;;;17.10;99.90;;;;;;5095632;28;20552;-76
2023/10/13 02:46:29;;;;;;;6.65;3.40;;;16.70;99.90;;;;;;5095522;28;20091;-76
2023/10/13 02:48:57;;;;;;;11.10;3.80;;;16.70;99.90;;;;;;5096216;28;20073;-77
2023/10/13 02:51:35;;;;;;;7.53;3.70;;;16.70;99.90;;;;;;5077412;28;20023;-76
2023/10/13 02:54:20;;;;;;;9.55;4.15;;;16.60;99.90;;;;;;5095603;28;20258;-76
2023/10/13 02:56:56;;;;;;;9.55;3.85;;;16.70;99.90;;;;;;5095999;28;20035;-77
2023/10/13 02:59:34;;;;;;;9.38;3.65;;;16.70;99.90;;;;;;5077516;28;20539;-77
2023/10/13 03:02:18;;;;;;;13.93;4.43;;;16.70;99.90;;;;;;5095368;28;20020;-77
2023/10/13 03:04:47;;;;;;;11.73;3.25;;;16.60;99.90;;;;;;5077202;28;20107;-76
2023/10/13 03:07:15;;;;;;;6.53;3.72;;;16.70;99.90;;;;;;5076936;28;20024;-77
2023/10/13 03:09:50;;;;;;;8.50;3.70;;;16.70;99.90;;;;;;5095144;28;20031;-77
2023/10/13 03:12:17;;;;;;;5.82;3.15;;;16.70;99.90;;;;;;5095805;28;20020;-77
2023/10/13 03:14:47;;;;;;;10.27;3.53;;;16.60;99.90;;;;;;5095090;28;20073;-77
2023/10/13 03:17:18;;;;;;;9.55;3.88;;;16.60;99.90;;;;;;5077018;28;20107;-76
2023/10/13 03:19:51;;;;;;;10.38;4.15;;;16.60;99.90;;;;;;5076921;28;20054;-77
2023/10/13 03:22:19;;;;;;;8.10;3.65;;;16.50;99.90;;;;;;5095137;28;20028;-77
2023/10/13 03:24:46;;;;;;;13.38;3.85;;;16.60;99.90;;;;;;5094908;28;20089;-76
2023/10/13 03:27:16;;;;;;;11.10;4.28;;;16.50;99.90;;;;;;5095004;28;20505;-77
2023/10/13 03:29:54;;;;;;;12.07;3.10;;;16.70;99.90;;;;;;5095527;28;20368;-76
2023/10/13 03:32:20;;;;;;;14.17;3.50;;;16.60;99.90;;;;;;5076746;28;20016;-76
2023/10/13 03:35:37;;;;;;;6.47;2.90;;;16.60;99.90;;;;;;5094793;28;20270;-76
2023/10/13 03:37:38;;;;;;;8.52;3.05;;;16.60;99.90;;;;;;5083647;28;20093;-76
2023/10/13 03:45:27;;;;;;;10.13;4.00;;;16.60;99.90;;;;;;5095360;28;20035;-76
2023/10/13 03:47:53;;;;;;;8.30;3.10;;;16.50;99.90;;;;;;5094544;28;20023;-76
2023/10/13 03:50:45;;;;;;;7.47;3.92;;;16.50;99.90;;;;;;5076317;28;20507;-76
2023/10/13 03:53:12;;;;;;;6.25;2.90;;;16.50;99.90;;;;;;5093939;28;20444;-76
2023/10/13 03:55:39;;;;;;;9.90;3.38;;;16.60;99.90;;;;;;5094245;28;20036;-76
2023/10/13 03:58:04;;;;;;;10.10;3.50;;;16.80;99.90;;;;;;5094336;28;20028;-76
2023/10/13 04:00:31;;;;;;;10.68;6.03;;;16.60;99.90;;;;;;5076113;28;20028;-76
2023/10/13 04:05:38;;;;;;;7.75;2.72;;;16.60;99.90;;;;;;5094971;28;20032;-76
2023/10/13 04:16:15;;;;;;;7.18;2.70;;;16.50;99.90;;;;;;5055730;28;20395;-76
2023/10/13 04:22:00;;;;;;;8.95;3.75;;;16.50;99.90;;;;;;5012161;28;20040;-76
2023/10/13 04:25:00;;;;;;;5.60;2.78;;;16.50;99.90;;;;;;5068853;28;20035;-76
2023/10/13 04:27:39;;;;;;;;;;;16.50;99.90;;;;;;5094086;28;20453;-76
2023/10/13 04:32:46;;;;;;;7.78;3.45;;;16.50;99.90;;;;;;5094032;28;20043;-76
2023/10/13 04:38:10;;;;;;;5.05;3.38;;;16.50;99.90;;;;;;5093906;28;20144;-76
2023/10/13 04:40:28;;;;;;;7.70;3.20;;;16.50;99.90;;;;;;5092850;28;20032;-76
2023/10/13 04:42:56;;;;;;;4.57;2.50;;;16.60;99.90;;;;;;5093561;28;20054;-76
2023/10/13 04:48:17;;;;;;;7.05;2.75;;;16.60;99.90;;;;;;5093397;28;20441;-77
2023/10/13 04:50:50;;;;;;;6.68;2.25;;;16.60;99.90;;;;;;5092974;28;20036;-77
2023/10/13 04:54:00;;;;;;;6.00;2.88;;;16.60;99.90;;;;;;5094017;28;20025;-76
2023/10/13 04:59:17;;;;;;;6.95;2.30;;;16.60;99.90;;;;;;5093908;28;20027;-76
2023/10/13 05:04:38;;;;;;;6.00;2.88;;;16.70;99.90;;;;;;5093135;28;20588;-76
2023/10/13 05:48:34;;;;;;;8.75;1.73;;;17.10;99.90;;;;;;5097058;28;20035;-76
2023/10/13 06:29:33;;;;;;;6.38;1.30;;;16.90;99.90;;;;;;5096677;28;20043;-76
2023/10/13 06:32:01;;;;;;;6.32;1.20;;;16.90;99.90;;;;;;5095721;28;20016;-77
2023/10/13 06:34:45;;;;;;;7.28;1.42;;;16.90;99.90;;;;;;5096043;28;20028;-76
2023/10/13 06:37:32;;;;;;;4.45;1.42;;;16.90;99.90;;;;;;5077792;28;20024;-76
2023/10/13 06:40:43;;;;;;;4.07;1.00;;;17.00;99.90;;;;;;5095785;28;20132;-76
2023/10/13 06:43:12;;;;;;;8.57;1.67;;;16.90;99.90;;;;;;5091256;28;20491;-77
2023/10/13 06:45:38;;;;;;;3.70;1.38;;;17.10;99.90;;;;;;5095617;28;20099;-76
2023/10/13 06:48:05;;;;;;;8.85;1.85;;;17.00;99.90;;;;;;5095878;28;20028;-76
2023/10/13 06:50:39;;;;;;;6.50;1.42;;;17.10;99.90;;;;;;5096127;28;20017;-76
2023/10/13 06:53:05;;;;;;;9.15;2.17;;;17.20;99.90;;;;;;5096146;28;20474;-76
2023/10/13 06:55:35;;;;;;;10.70;2.85;;;17.20;99.90;;;;;;5095457;28;20540;-76
2023/10/13 06:58:01;;;;;;;8.43;2.78;;;17.20;99.90;;;;;;5095084;28;20074;-76
2023/10/13 07:00:29;;;;;;;5.25;2.67;;;17.50;99.90;;;;;;5077382;28;20483;-76
2023/10/13 07:03:05;;;;;;;7.40;3.40;;;17.40;99.90;;;;;;5095339;28;20036;-76
2023/10/13 07:05:35;;;;;;;6.78;2.90;;;17.30;99.90;;;;;;5095220;28;20479;-76
2023/10/13 07:08:04;;;;;;;11.13;4.28;;;17.40;99.90;;;;;;5095591;28;20070;-76
2023/10/13 07:10:30;;;;;;;10.15;4.60;;;17.50;99.90;;;;;;5095231;28;20058;-76
2023/10/13 07:13:00;;;;;;;14.60;4.20;;;17.50;99.90;;;;;;5095155;28;20020;-76
2023/10/13 07:15:28;;;;;;;11.23;4.93;;;17.60;99.90;;;;;;5095114;28;20020;-76
2023/10/13 07:17:59;;;;;;;11.57;5.22;;;17.60;99.90;;;;;;5076888;28;20077;-76
2023/10/13 07:23:06;;;;;;;11.10;4.82;;;17.70;99.90;;;;;;5094994;28;20540;-76
2023/10/13 07:25:32;;;;;;;10.20;5.03;;;17.70;99.90;;;;;;5076699;28;20078;-76
2023/10/13 07:28:08;;;;;;;7.65;4.68;;;17.70;99.90;;;;;;5077149;28;20399;-75
2023/10/13 07:31:08;;;;;;;8.88;3.95;;;17.70;99.90;;;;;;5094923;28;20489;-75
2023/10/13 07:33:34;;;;;;;8.23;3.92;;;17.80;99.90;;;;;;5076705;28;20081;-76
2023/10/13 07:39:40;;;;;;;9.90;2.97;;;17.80;99.90;;;;;;5063558;28;20086;-76
2023/10/13 07:41:51;;;;;;;11.35;3.65;;;17.80;99.90;;;;;;5081123;28;20043;-76
2023/10/13 07:44:19;;;;;;;11.15;2.80;;;17.80;99.90;;;;;;5076399;28;20510;-76
2023/10/13 07:46:49;;;;;;;5.10;2.20;;;17.90;99.90;;;;;;5076602;28;20057;-76
2023/10/13 07:49:15;;;;;;;6.63;2.90;;;18.20;99.90;;;;;;5094497;28;20406;-76
2023/10/13 07:51:51;;;;;;;8.15;3.63;;;17.90;99.90;;;;;;5094391;28;20017;-76
2023/10/13 07:54:21;;;;;;;5.90;2.40;;;18.40;99.90;;;;;;5093638;28;20103;-76
2023/10/13 07:56:47;;;;;;;10.60;2.60;;;17.90;99.90;;;;;;5094332;28;20028;-76
2023/10/13 07:59:14;;;;;;;11.82;2.60;;;17.90;99.90;;;;;;5094149;28;20024;-76
2023/10/13 08:01:45;;;;;;;8.73;2.85;;;18.00;99.90;;;;;;5094167;28;20046;-76
2023/10/13 08:04:16;;;;;;;24.58;2.42;;;18.10;99.90;;;;;;5094682;28;20475;-76
2023/10/13 08:06:45;;;;;;;6.35;1.85;;;18.10;99.90;;;;;;5094188;28;20077;-76
2023/10/13 08:11:55;;;;;;;3.92;1.80;;;18.10;99.90;;;;;;5094931;28;20063;-76
2023/10/13 08:14:28;;;;;;;6.95;1.70;;;18.20;99.90;;;;;;5093971;28;20016;-76
2023/10/13 08:16:59;;;;;;;8.48;2.28;;;18.20;99.90;;;;;;5093957;28;20397;-76
2023/10/13 08:19:27;;;;;;;10.20;1.60;;;18.20;99.90;;;;;;5093907;28;20099;-75
2023/10/13 08:21:58;;;;;;;14.52;2.10;;;18.20;99.90;;;;;;5094080;28;20016;-78
2023/10/13 08:25:15;;;;;;;7.90;1.73;;;18.30;99.90;;;;;;5076195;28;20035;-76
2023/10/13 08:48:12;;;;;;;5.78;1.05;;;18.80;99.90;;;;;;5095141;28;20063;-76
2023/10/13 09:01:59;;;;;;;7.78;1.35;;;18.90;99.90;;;;;;5011481;28;20034;-76
2023/10/13 09:15:23;;;;;;;15.35;2.50;;;18.80;99.90;;;;;;5093417;28;20051;-76
2023/10/13 09:25:37;;;;;;;7.57;1.45;;;18.80;99.90;;;;;;5092980;28;20449;-76
2023/10/13 09:28:18;;;;;;;5.72;1.33;;;18.80;99.90;;;;;;5075002;28;20023;-76
2023/10/13 09:30:44;;;;;;;7.75;1.55;;;18.90;99.90;;;;;;5093219;28;20044;-76
2023/10/13 09:33:20;;;;;;;11.10;1.92;;;19.00;99.90;;;;;;5092977;28;20557;-76
2023/10/13 09:35:49;;;;;;;9.25;2.33;;;19.00;99.90;;;;;;5093179;28;20024;-76
2023/10/13 09:38:18;;;;;;;16.40;2.88;;;19.00;99.90;;;;;;5092879;28;20056;-76
2023/10/13 09:40:50;;;;;;;7.80;2.17;;;19.00;99.90;;;;;;5092964;28;20032;-76
2023/10/13 09:43:17;;;;;;;4.97;1.00;;;19.10;99.90;;;;;;5074860;28;20127;-76
2023/10/13 09:46:02;;;;;;;8.82;1.55;;;19.10;99.90;;;;;;5092629;28;20016;-76
2023/10/13 09:48:32;;;;;;;10.20;1.80;;;19.10;99.90;;;;;;5074809;28;20123;-76
2023/10/13 09:51:08;;;;;;;12.25;1.80;;;19.10;99.90;;;;;;5092779;28;20048;-76
2023/10/13 09:53:38;;;;;;;10.93;1.45;;;19.20;99.90;;;;;;5092522;28;20025;-76
2023/10/13 09:56:28;;;;;;;13.02;1.75;;;19.20;99.90;;;;;;5092645;28;20109;-76
2023/10/13 09:59:08;;;;;;;7.82;1.50;;;19.20;99.90;;;;;;5092795;28;20024;-76
2023/10/13 10:01:37;;;;;;;12.63;1.40;;;19.20;99.90;;;;;;5092904;28;20073;-76
2023/10/13 10:04:17;;;;;;;7.75;1.60;;;19.10;99.90;;;;;;5092839;28;20107;-76
2023/10/13 10:06:56;;;;;;;13.98;1.52;;;19.20;99.90;;;;;;5074490;28;20027;-76
2023/10/13 10:09:34;;;;;;;10.32;2.03;;;19.30;99.90;;;;;;5092759;28;20024;-76
2023/10/13 10:12:34;;;;;;;5.28;1.63;;;19.40;99.90;;;;;;5074519;28;20016;-76
2023/10/13 10:15:33;;;;;;;8.95;1.75;;;19.40;99.90;;;;;;5092495;28;20016;-76
2023/10/13 10:18:00;;;;;;;10.68;2.30;;;19.50;99.90;;;;;;5093771;28;20373;-76
2023/10/13 10:20:39;;;;;;;4.88;1.75;;;19.90;99.90;;;;;;5096129;28;20084;-76
2023/10/13 10:23:09;;;;;;;12.60;2.28;;;19.60;99.90;;;;;;5096201;28;20035;-76
2023/10/13 10:25:36;;;;;;;13.75;2.15;;;19.80;99.90;;;;;;5095896;28;20426;-76
2023/10/13 10:28:05;;;;;;;10.27;1.70;;;19.90;99.90;;;;;;5096584;28;20047;-76
2023/10/13 10:30:41;;;;;;;7.13;1.90;;;20.10;99.90;;;;;;5095997;28;20477;-75
2023/10/13 10:33:18;;;;;;;7.65;1.17;;;20.30;99.90;;;;;;5096561;28;20023;-76
2023/10/13 10:35:46;;;;;;;6.63;2.10;;;20.40;99.90;;;;;;5096449;28;20521;-75
2023/10/13 10:38:32;;;;;;;6.80;1.55;;;20.60;99.90;;;;;;5095871;28;20023;-76
2023/10/13 10:41:04;;;;;;;8.57;1.27;;;20.70;99.90;;;;;;5095900;28;20047;-76
2023/10/13 10:43:47;;;;;;;5.75;2.03;;;20.70;99.90;;;;;;5095678;28;20024;-76
2023/10/13 10:46:27;;;;;;;12.25;1.38;;;20.60;99.90;;;;;;5095551;28;20032;-76
2023/10/13 10:49:02;;;;;;;9.15;1.50;;;20.60;99.90;;;;;;5095775;28;20012;-76
2023/10/13 10:51:31;;;;;;;11.13;1.92;;;20.60;99.90;;;;;;5077382;28;20020;-76
2023/10/13 10:53:58;;;;;;;7.22;1.38;;;20.60;99.90;;;;;;5095673;28;20037;-76
2023/10/13 10:56:36;;;;;;;10.10;1.65;;;20.60;99.90;;;;;;5077074;28;20028;-76
2023/10/13 10:59:07;;;;;;;9.15;1.95;;;20.60;99.90;;;;;;5077246;28;20109;-76
2023/10/13 11:01:38;;;;;;;7.13;1.15;;;20.70;99.90;;;;;;5096000;28;20028;-76
2023/10/13 11:04:08;;;;;;;10.40;1.50;;;20.70;99.90;;;;;;5095440;28;20495;-76
2023/10/13 11:06:45;;;;;;;11.10;1.92;;;20.80;99.90;;;;;;5095239;28;20074;-75
2023/10/13 11:11:57;;;;;;;15.45;1.98;;;20.70;99.90;;;;;;5095221;28;20495;-76
2023/10/13 11:14:28;;;;;;;9.30;1.25;;;20.70;99.90;;;;;;5095281;28;20387;-75
2023/10/13 11:17:04;;;;;;;7.53;1.85;;;20.70;99.90;;;;;;5076950;28;20012;-75
2023/10/13 11:19:43;;;;;;;10.30;2.55;;;20.70;99.90;;;;;;5095157;28;20027;-75
2023/10/13 11:22:35;;;;;;;8.70;2.42;;;20.70;99.90;;;;;;5095206;28;20024;-76
2023/10/13 11:25:14;;;;;;;8.40;2.40;;;20.70;99.90;;;;;;5094865;28;20111;-76
2023/10/13 11:30:20;;;;;;;9.25;1.40;;;20.80;99.90;;;;;;5094824;28;20039;-75
2023/10/13 11:32:56;;;;;;;9.98;2.05;;;20.80;99.90;;;;;;5076601;28;20056;-75
2023/10/13 11:35:25;;;;;;;7.47;1.70;;;20.80;99.90;;;;;;5095201;28;20468;-76
2023/10/13 11:38:03;;;;;;;9.70;1.60;;;21.00;99.90;;;;;;5095202;28;20035;-75
2023/10/13 11:40:43;;;;;;;18.33;1.83;;;21.10;99.90;;;;;;5094635;28;20047;-75
2023/10/13 11:43:15;;;;;;;10.85;1.58;;;21.20;99.90;;;;;;5094771;28;20054;-75
2023/10/13 11:48:36;;;;;;;11.60;2.88;;;21.10;99.90;;;;;;5094712;28;20115;-75
2023/10/13 11:51:08;;;;;;;10.40;2.35;;;21.10;99.90;;;;;;5094940;28;20020;-75
2023/10/13 11:53:38;;;;;;;11.23;2.05;;;21.10;99.90;;;;;;5076713;28;20043;-75
2023/10/13 11:56:11;;;;;;;8.77;1.63;;;21.10;99.90;;;;;;5094150;28;20028;-75
2023/10/13 11:58:37;;;;;;;8.68;2.47;;;21.10;99.90;;;;;;5094404;28;20028;-75
2023/10/13 12:06:33;;;;;;;9.00;1.30;;;20.90;99.90;;;;;;5094190;28;20035;-75
2023/10/13 12:09:13;;;;;;;7.78;1.63;;;21.00;99.90;;;;;;5094118;28;20395;-75
2023/10/13 12:11:41;;;;;;;9.38;2.03;;;21.00;99.90;;;;;;5094153;28;20046;-75
2023/10/13 12:14:19;;;;;;;13.97;1.97;;;20.90;99.90;;;;;;5094071;28;20061;-75
2023/10/13 12:16:51;;;;;;;11.38;2.00;;;21.00;99.90;;;;;;5093880;28;20024;-75
2023/10/13 12:19:24;;;;;;;15.15;2.00;;;21.10;99.90;;;;;;5094528;28;20020;-75
2023/10/13 12:21:54;;;;;;;13.50;2.65;;;21.00;99.90;;;;;;5094788;28;20468;-76
2023/10/13 12:27:18;;;;;;;9.57;1.80;;;21.00;99.90;;;;;;5094675;28;20042;-75
2023/10/13 12:29:49;;;;;;;5.68;2.17;;;21.10;99.90;;;;;;5075770;28;20020;-75
2023/10/13 12:32:22;;;;;;;13.13;2.25;;;21.70;99.90;;;;;;5094295;28;20108;-75
2023/10/13 12:51:20;;;;;;;11.88;1.73;;;21.00;99.90;;;;;;5093827;28;20404;-75
2023/10/13 12:53:51;;;;;;;9.73;2.17;;;20.90;99.90;;;;;;5075377;28;20127;-75
2023/10/13 12:56:25;;;;;;;10.68;1.58;;;20.90;99.90;;;;;;5093733;28;20040;-76
2023/10/13 12:58:51;;;;;;;6.80;1.70;;;20.90;99.90;;;;;;5075583;28;20111;-76
2023/10/13 13:01:25;;;;;;;6.53;1.73;;;20.80;99.90;;;;;;5093389;28;20024;-75
2023/10/13 13:03:57;;;;;;;7.43;1.48;;;20.90;99.90;;;;;;5094043;28;20039;-75
2023/10/13 13:06:25;;;;;;;7.15;1.27;;;20.90;99.90;;;;;;5093241;28;20475;-76
2023/10/13 13:08:55;;;;;;;11.27;2.70;;;20.80;99.90;;;;;;5093679;28;20103;-75
2023/10/13 13:11:20;;;;;;;13.10;1.98;;;20.80;99.90;;;;;;5093267;28;20085;-76
2023/10/13 13:13:46;;;;;;;13.23;2.53;;;20.80;99.90;;;;;;5075278;28;20538;-77
2023/10/13 13:16:23;;;;;;;10.15;1.67;;;20.90;99.90;;;;;;5093411;28;20028;-75
2023/10/13 13:18:50;;;;;;;15.52;2.50;;;20.60;99.90;;;;;;5074990;28;20024;-76
2023/10/13 13:21:24;;;;;;;8.32;2.97;;;20.50;99.90;;;;;;5093081;28;20027;-76
2023/10/13 13:23:50;;;;;;;9.73;1.45;;;20.50;99.90;;;;;;5075029;28;20089;-76
2023/10/13 13:26:17;;;;;;;10.88;1.95;;;20.50;99.90;;;;;;5074692;28;20028;-76
2023/10/13 13:28:43;;;;;;;14.77;2.65;;;20.50;99.90;;;;;;5075035;28;20025;-76
2023/10/13 13:31:12;;;;;;;11.45;1.95;;;20.50;99.90;;;;;;5074767;28;20020;-76
2023/10/13 13:33:38;;;;;;;9.18;2.10;;;20.20;99.90;;;;;;5092923;28;20494;-76
2023/10/13 13:36:07;;;;;;;16.48;2.65;;;20.40;99.90;;;;;;5075107;28;20020;-76
2023/10/13 13:38:33;;;;;;;;;;;20.40;99.90;;;;;;5093455;28;20030;-76
2023/10/13 13:41:01;;;;;;;8.55;2.88;;;20.30;99.90;;;;;;5074838;28;19994;-76
2023/10/13 13:44:13;;;;;;;11.18;2.75;;;20.20;99.90;;;;;;5093428;28;20524;-76
2023/10/13 13:46:24;;;;;;;6.72;2.67;;;20.10;99.90;;;;;;5088617;28;20031;-76
2023/10/13 13:49:00;;;;;;;9.18;2.25;;;20.00;99.90;;;;;;5074803;28;20024;-76
2023/10/13 13:51:27;;;;;;;15.50;2.47;;;20.00;99.90;;;;;;5074810;28;20111;-76
2023/10/13 13:53:57;;;;;;;12.20;2.05;;;19.90;99.90;;;;;;5077530;28;20111;-76
2023/10/13 13:56:27;;;;;;;11.40;3.22;;;19.90;99.90;;;;;;5096407;28;20032;-76
2023/10/13 13:58:55;;;;;;;10.75;1.75;;;19.80;99.90;;;;;;5079612;28;20028;-76
2023/10/13 14:01:21;;;;;;;13.05;2.92;;;19.80;99.90;;;;;;5098569;28;20062;-80
2023/10/13 14:03:52;;;;;;;13.90;3.08;;;19.80;99.90;;;;;;5098980;28;20023;-79
2023/10/13 14:06:28;;;;;;;10.98;2.75;;;19.70;99.90;;;;;;5098823;28;20049;-80
2023/10/13 14:09:32;;;;;;;11.93;2.95;;;19.60;99.90;;;;;;5098549;28;20107;-79
2023/10/13 14:14:49;;;;;;;12.68;3.28;;;19.10;99.90;;;;;;5098388;28;20094;-80
2023/10/13 14:17:15;;;;;;;8.52;2.85;;;19.10;99.90;;;;;;5098337;28;20024;-80
2023/10/13 14:19:41;;;;;;;9.63;2.17;;;19.00;99.90;;;;;;5080415;28;20016;-80
2023/10/13 14:22:06;;;;;;;11.50;2.40;;;18.90;99.90;;;;;;5098089;28;20053;-80
2023/10/13 14:24:34;;;;;;;17.02;3.65;;;18.90;99.90;;;;;;5079767;28;20023;-80
2023/10/13 14:27:07;;;;;;;13.23;2.63;;;18.80;99.90;;;;;;5079714;28;20017;-80
2023/10/13 14:29:34;;;;;;;10.13;3.33;;;18.70;99.90;;;;;;5098135;28;20103;-80
2023/10/13 14:31:59;;;;;;;9.35;3.60;;;18.60;99.90;;;;;;5079802;28;20020;-80
2023/10/13 14:34:26;;;;;;;11.18;2.65;;;18.50;99.90;;;;;;5097856;28;20529;-80
2023/10/13 14:36:54;;;;;;;10.68;2.58;;;18.50;99.90;;;;;;5080036;28;20066;-80
2023/10/13 14:39:20;;;;;;;9.77;2.78;;;18.50;99.90;;;;;;5079734;28;20129;-80
2023/10/13 14:41:47;;;;;;;9.45;1.77;;;18.50;99.90;;;;;;5079734;28;20030;-80
2023/10/13 14:44:13;;;;;;;8.27;1.20;;;18.40;99.90;;;;;;5079211;28;20048;-80
2023/10/13 14:46:39;;;;;;;10.25;1.60;;;18.30;99.90;;;;;;5097623;28;20063;-80
2023/10/13 14:49:06;;;;;;;16.88;2.10;;;18.30;99.90;;;;;;5097938;28;20024;-80
2023/10/13 14:51:31;;;;;;;12.68;2.38;;;18.20;99.90;;;;;;5079413;28;20020;-80
2023/10/13 14:54:01;;;;;;;16.88;2.20;;;18.70;99.90;;;;;;5078991;28;20023;-80
2023/10/13 14:56:27;;;;;;;7.43;2.42;;;18.30;99.90;;;;;;5097426;28;20078;-80
2023/10/13 14:58:54;;;;;;;13.15;3.42;;;18.20;99.90;;;;;;5079574;28;20034;-80
2023/10/13 15:01:22;;;;;;;8.82;2.22;;;18.20;99.90;;;;;;5097481;28;20388;-80
2023/10/13 15:03:50;;;;;;;9.55;1.70;;;18.20;99.90;;;;;;5078625;28;20031;-80
2023/10/13 15:06:26;;;;;;;11.97;2.47;;;18.20;99.90;;;;;;5078785;28;20036;-80
2023/10/13 15:08:55;;;;;;;9.65;2.38;;;18.10;99.90;;;;;;5097306;28;20020;-80
2023/10/13 15:11:26;;;;;;;13.40;1.83;;;19.30;99.90;;;;;;5079524;28;20073;-80
2023/10/13 15:13:52;;;;;;;8.95;2.08;;;19.70;99.90;;;;;;5097444;28;20016;-80
2023/10/13 15:16:21;;;;;;;7.95;2.20;;;18.10;99.90;;;;;;5097374;28;20382;-80
2023/10/13 15:18:51;;;;;;;12.18;2.15;;;18.00;99.90;;;;;;5097653;28;20050;-80
2023/10/13 15:21:23;;;;;;;11.05;2.38;;;18.00;99.90;;;;;;5097415;28;20020;-80
2023/10/13 15:23:51;;;;;;;7.60;2.13;;;18.10;99.90;;;;;;5096663;28;20441;-80
2023/10/13 15:26:23;;;;;;;13.07;2.92;;;18.10;99.90;;;;;;5096806;28;20016;-80
2023/10/13 15:28:53;;;;;;;15.93;3.17;;;;;;;;;;5079450;28;20023;-80
2023/10/13 15:34:17;;;;;;;10.50;3.38;;;18.10;99.90;;;;;;5097068;28;20031;-80
2023/10/13 15:36:44;;;;;;;8.73;2.20;;;18.00;99.90;;;;;;5078343;28;20111;-79
2023/10/13 15:39:15;;;;;;;14.60;3.97;;;18.00;99.90;;;;;;5078696;28;20546;-79
2023/10/13 15:41:41;;;;;;;21.88;3.80;;;18.00;99.90;;;;;;5096833;28;20020;-80
2023/10/13 15:44:12;;;;;;;16.90;3.35;;;18.00;99.90;;;;;;5097093;28;20028;-80
2023/10/13 15:46:39;;;;;;;11.82;3.70;;;18.00;99.90;;;;;;5078762;28;20039;-80
2023/10/13 15:49:05;;;;;;;11.25;3.53;;;18.00;99.90;;;;;;5097195;28;20020;-80
2023/10/13 15:51:39;;;;;;;10.38;3.05;;;18.00;99.90;;;;;;5078789;28;20028;-79
2023/10/13 15:54:10;;;;;;;16.33;2.85;;;18.20;99.90;;;;;;5079143;28;20032;-79
2023/10/13 15:56:39;;;;;;;12.00;3.13;;;18.00;99.90;;;;;;5078256;28;20514;-79
2023/10/13 15:59:06;;;;;;;15.07;3.53;;;18.00;99.90;;;;;;5096583;28;20016;-79
2023/10/13 16:01:33;;;;;;;6.93;2.05;;;18.00;99.90;;;;;;5096285;28;20111;-79
2023/10/13 16:03:59;;;;;;;11.93;3.38;;;18.00;99.90;;;;;;5078767;28;20491;-79
2023/10/13 16:06:25;;;;;;;15.80;3.88;;;18.00;99.90;;;;;;5096780;28;20020;-79
2023/10/13 16:08:52;;;;;;;13.43;2.20;;;18.00;99.90;;;;;;5096681;28;20536;-79
2023/10/13 16:11:17;;;;;;;11.18;2.88;;;18.00;99.90;;;;;;5078163;28;20028;-79
2023/10/13 16:13:46;;;;;;;20.02;3.00;;;18.00;99.90;;;;;;5096761;28;20386;-80
2023/10/13 16:16:23;;;;;;;14.93;3.35;;;18.00;99.90;;;;;;5096097;28;20024;-79
2023/10/13 16:18:49;;;;;;;12.32;3.63;;;18.00;99.90;;;;;;5096828;28;20105;-79
2023/10/13 16:21:16;;;;;;;14.32;3.45;;;18.00;99.90;;;;;;5077787;28;20487;-79
2023/10/13 16:23:45;;;;;;;11.90;2.88;;;18.00;99.90;;;;;;5078717;28;20376;-79
2023/10/13 16:26:11;;;;;;;19.80;3.13;;;17.90;99.90;;;;;;5095885;28;20376;-79
2023/10/13 16:28:38;;;;;;;10.15;3.42;;;18.00;99.90;;;;;;5078091;28;20023;-79
2023/10/13 16:31:05;;;;;;;9.55;3.35;;;17.90;99.90;;;;;;5078028;28;20042;-79
2023/10/13 16:33:32;;;;;;;9.77;2.78;;;17.90;99.90;;;;;;5096124;28;20432;-79
2023/10/13 16:35:58;;;;;;;13.02;3.38;;;18.00;99.90;;;;;;5078254;28;20027;-79
2023/10/13 16:38:24;;;;;;;7.53;2.13;;;17.90;99.90;;;;;;5078313;28;20024;-79